createdAt,value
2023-04-15T00:02:19.643Z,6.69
2023-04-15T00:04:47.996Z,6.68
2023-04-15T00:07:16.361Z,6.72
2023-04-15T00:09:44.652Z,6.74
2023-04-15T00:12:12.503Z,6.74
2023-04-15T00:14:40.240Z,6.80
2023-04-15T00:17:08.141Z,6.80
2023-04-15T00:19:37.481Z,6.84
2023-04-15T00:22:07.066Z,6.82
2023-04-15T00:24:34.658Z,6.79
2023-04-15T00:27:02.321Z,6.83
2023-04-15T00:29:30.459Z,6.83
2023-04-15T00:31:59.455Z,6.77
2023-04-15T00:34:28.838Z,6.79
2023-04-15T00:36:58.303Z,6.79
2023-04-15T00:39:25.956Z,6.82
2023-04-15T00:41:54.439Z,6.78
2023-04-15T00:44:22.025Z,6.78
2023-04-15T00:46:52.946Z,6.84
2023-04-15T00:49:20.914Z,6.83
2023-04-15T00:51:49.115Z,6.88
2023-04-15T00:54:18.270Z,6.85
2023-04-15T00:56:46.196Z,6.85
2023-04-15T00:59:15.637Z,6.83
2023-04-15T01:01:45.330Z,6.83
2023-04-15T01:04:13.330Z,6.84
2023-04-15T01:06:41.150Z,6.85
2023-04-15T01:09:08.794Z,6.83
2023-04-15T01:11:37.757Z,6.84
2023-04-15T01:14:05.945Z,6.79
2023-04-15T01:16:33.597Z,6.77
2023-04-15T01:19:01.656Z,6.78
2023-04-15T01:21:30.001Z,6.79
2023-04-15T01:23:58.529Z,6.82
2023-04-15T01:26:28.284Z,6.82
2023-04-15T01:28:56.375Z,6.83
2023-04-15T01:31:24.167Z,6.83
2023-04-15T01:33:51.920Z,6.83
2023-04-15T01:36:19.581Z,6.87
2023-04-15T01:38:47.629Z,6.86
2023-04-15T01:41:15.510Z,6.85
2023-04-15T01:43:44.460Z,6.85
2023-04-15T01:46:12.777Z,6.86
2023-04-15T01:48:40.439Z,6.86
2023-04-15T01:51:08.226Z,6.86
2023-04-15T01:53:35.935Z,6.89
2023-04-15T01:56:03.677Z,6.88
2023-04-15T01:58:31.427Z,6.85
2023-04-15T02:01:00.664Z,6.86
2023-04-15T02:03:29.164Z,6.89
2023-04-15T02:05:57.604Z,6.89
2023-04-15T02:08:25.237Z,6.91
2023-04-15T02:10:53.238Z,6.91
2023-04-15T02:13:20.965Z,6.89
2023-04-15T02:15:49.892Z,6.92
2023-04-15T02:18:18.926Z,6.91
2023-04-15T02:20:47.148Z,6.88
2023-04-15T02:23:15.186Z,6.90
2023-04-15T02:25:42.828Z,6.92
2023-04-15T02:28:21.266Z,6.91
2023-04-15T02:30:50.910Z,6.91
2023-04-15T02:33:20.213Z,6.94
2023-04-15T02:35:47.793Z,6.93
2023-04-15T02:38:17.153Z,6.95
2023-04-15T02:40:44.878Z,7.01
2023-04-15T02:43:12.477Z,7.00
2023-04-15T02:45:40.475Z,6.98
2023-04-15T02:48:08.115Z,7.02
2023-04-15T02:50:38.791Z,6.99
2023-04-15T02:53:06.533Z,7.01
2023-04-15T02:55:34.478Z,7.03
2023-04-15T02:58:02.071Z,7.06
2023-04-15T03:00:29.663Z,7.11
2023-04-15T03:03:00.776Z,7.09
2023-04-15T03:05:28.814Z,7.07
2023-04-15T03:07:57.882Z,7.06
2023-04-15T03:10:25.498Z,7.10
2023-04-15T03:12:53.135Z,7.14
2023-04-15T03:15:21.194Z,7.14
2023-04-15T03:17:49.450Z,7.09
2023-04-15T03:20:17.692Z,7.12
2023-04-15T03:22:45.388Z,7.15
2023-04-15T03:25:14.537Z,7.19
2023-04-15T03:27:42.679Z,7.22
2023-04-15T03:30:11.238Z,7.19
2023-04-15T03:32:38.950Z,7.21
2023-04-15T03:35:07.470Z,7.24
2023-04-15T03:37:35.070Z,7.24
2023-04-15T03:40:03.073Z,7.27
2023-04-15T03:42:32.166Z,7.26
2023-04-15T03:45:00.705Z,7.29
2023-04-15T03:47:28.371Z,7.29
2023-04-15T03:49:56.012Z,7.30
2023-04-15T03:52:23.638Z,7.27
2023-04-15T03:54:51.444Z,7.29
2023-04-15T03:57:18.997Z,7.27
2023-04-15T03:59:47.999Z,7.27
2023-04-15T04:02:15.644Z,7.23
2023-04-15T04:04:43.877Z,7.25
2023-04-15T04:07:16.656Z,7.25
2023-04-15T04:09:46.158Z,7.29
2023-04-15T04:12:14.915Z,7.29
2023-04-15T04:14:42.643Z,7.24
2023-04-15T04:17:11.867Z,7.26
2023-04-15T04:19:39.513Z,7.26
2023-04-15T04:22:07.373Z,7.31
2023-04-15T04:24:35.030Z,7.32
2023-04-15T04:27:02.705Z,7.32
2023-04-15T04:29:30.683Z,7.30
2023-04-15T04:31:58.416Z,7.31
2023-04-15T04:34:27.405Z,7.32
2023-04-15T04:36:55.096Z,7.30
2023-04-15T04:39:23.238Z,7.29
2023-04-15T04:41:52.112Z,7.30
2023-04-15T04:44:20.240Z,7.30
2023-04-15T04:46:47.957Z,7.29
2023-04-15T04:49:15.566Z,7.31
2023-04-15T04:51:45.244Z,7.28
2023-04-15T04:54:12.885Z,7.30
2023-04-15T04:56:40.973Z,7.30
2023-04-15T04:59:09.509Z,7.27
2023-04-15T05:01:37.547Z,7.27
2023-04-15T05:04:06.204Z,7.32
2023-04-15T05:06:33.984Z,7.30
2023-04-15T05:09:03.460Z,7.29
2023-04-15T05:11:31.401Z,7.31
2023-04-15T05:13:59.760Z,7.33
2023-04-15T05:16:27.385Z,7.34
2023-04-15T05:18:55.132Z,7.36
2023-04-15T05:21:22.919Z,7.36
2023-04-15T05:23:50.940Z,7.36
2023-04-15T05:26:20.068Z,7.37
2023-04-15T05:28:47.927Z,7.40
2023-04-15T05:31:15.668Z,7.38
2023-04-15T05:33:43.448Z,7.41
2023-04-15T05:36:12.097Z,7.38
2023-04-15T05:38:39.718Z,7.37
2023-04-15T05:41:07.482Z,7.42
2023-04-15T05:43:36.533Z,7.41
2023-04-15T05:46:04.213Z,7.43
2023-04-15T05:48:31.909Z,7.44
2023-04-15T05:50:59.642Z,7.47
2023-04-15T05:53:27.251Z,7.51
2023-04-15T05:55:54.831Z,7.55
2023-04-15T05:58:22.582Z,7.53
2023-04-15T06:00:52.211Z,7.54
2023-04-15T06:03:19.996Z,7.55
2023-04-15T06:05:48.314Z,7.63
2023-04-15T06:08:15.998Z,7.67
2023-04-15T06:10:43.755Z,7.64
2023-04-15T06:13:11.349Z,7.68
2023-04-15T06:15:39.009Z,7.66
2023-04-15T06:18:07.974Z,7.66
2023-04-15T06:20:36.646Z,7.74
2023-04-15T06:23:04.271Z,7.74
2023-04-15T06:25:31.986Z,7.73
2023-04-15T06:27:59.620Z,7.84
2023-04-15T06:30:27.341Z,7.85
2023-04-15T06:32:56.374Z,7.88
2023-04-15T06:35:25.399Z,7.89
2023-04-15T06:37:52.960Z,7.92
2023-04-15T06:40:20.545Z,7.91
2023-04-15T06:42:48.163Z,7.89
2023-04-15T06:45:15.931Z,7.96
2023-04-15T06:47:43.574Z,7.95
2023-04-15T06:50:11.726Z,7.97
2023-04-15T06:52:40.955Z,8.03
2023-04-15T06:55:09.977Z,7.98
2023-04-15T06:57:37.551Z,7.98
2023-04-15T07:00:05.881Z,8.06
2023-04-15T07:02:33.607Z,8.14
2023-04-15T07:05:01.673Z,8.13
2023-04-15T07:07:29.338Z,8.12
2023-04-15T07:09:58.327Z,8.19
2023-04-15T07:12:26.081Z,8.23
2023-04-15T07:14:53.672Z,8.24
2023-04-15T07:17:21.542Z,8.27
2023-04-15T07:19:49.279Z,8.30
2023-04-15T07:22:16.873Z,8.31
2023-04-15T07:24:44.507Z,8.25
2023-04-15T07:27:13.545Z,8.27
2023-04-15T07:29:41.388Z,8.28
2023-04-15T07:32:10.453Z,8.28
2023-04-15T07:34:38.578Z,8.29
2023-04-15T07:37:06.173Z,8.20
2023-04-15T07:39:33.764Z,8.25
2023-04-15T07:42:02.107Z,8.29
2023-04-15T07:44:31.637Z,8.28
2023-04-15T07:46:59.377Z,8.31
2023-04-15T07:49:26.987Z,8.32
2023-04-15T07:51:54.871Z,8.33
2023-04-15T07:54:22.455Z,8.25
2023-04-15T07:56:50.554Z,8.35
2023-04-15T07:59:18.859Z,8.49
2023-04-15T08:01:48.242Z,8.51
2023-04-15T08:04:16.142Z,8.56
2023-04-15T08:06:43.996Z,8.56
2023-04-15T08:09:11.871Z,8.53
2023-04-15T08:11:39.489Z,8.55
2023-04-15T08:14:07.124Z,8.57
2023-04-15T08:16:35.098Z,8.62
2023-04-15T08:19:04.690Z,8.62
2023-04-15T08:21:32.742Z,8.61
2023-04-15T08:24:01.684Z,8.67
2023-04-15T08:26:29.341Z,8.79
2023-04-15T08:28:57.423Z,8.80
2023-04-15T08:31:25.320Z,8.80
2023-04-15T08:33:54.489Z,8.94
2023-04-15T08:36:23.500Z,8.95
2023-04-15T08:38:51.193Z,8.90
2023-04-15T08:41:23.694Z,8.89
2023-04-15T08:43:55.525Z,9.04
2023-04-15T08:46:23.721Z,9.02
2023-04-15T08:48:52.217Z,9.00
2023-04-15T08:51:20.265Z,9.04
2023-04-15T08:53:50.806Z,9.07
2023-04-15T08:56:20.244Z,8.94
2023-04-15T08:58:48.828Z,8.90
2023-04-15T09:01:16.952Z,9.03
2023-04-15T09:03:45.664Z,9.02
2023-04-15T09:06:13.767Z,9.00
2023-04-15T09:08:41.362Z,8.97
2023-04-15T09:11:10.377Z,9.02
2023-04-15T09:13:38.154Z,9.04
2023-04-15T09:16:08.381Z,9.12
2023-04-15T09:18:38.129Z,9.21
2023-04-15T09:21:09.380Z,9.28
2023-04-15T09:23:37.915Z,9.34
2023-04-15T09:26:06.356Z,9.38
2023-04-15T09:28:43.055Z,9.47
2023-04-15T09:31:11.955Z,9.62
2023-04-15T09:33:56.736Z,9.99
2023-04-15T09:36:25.154Z,10.00
2023-04-15T09:38:56.683Z,10.04
2023-04-15T09:41:25.243Z,9.97
2023-04-15T09:43:54.330Z,9.87
2023-04-15T09:46:22.042Z,9.82
2023-04-15T09:49:08.866Z,9.83
2023-04-15T09:51:37.387Z,9.87
2023-04-15T09:54:05.666Z,9.96
2023-04-15T09:56:36.184Z,10.01
2023-04-15T09:59:07.106Z,10.05
2023-04-15T10:01:34.978Z,10.11
2023-04-15T10:04:05.281Z,10.32
2023-04-15T10:06:33.485Z,10.50
2023-04-15T10:09:01.896Z,10.69
2023-04-15T10:11:31.793Z,10.77
2023-04-15T10:14:00.521Z,10.85
2023-04-15T10:16:30.947Z,10.85
2023-04-15T10:18:59.400Z,11.08
2023-04-15T10:21:28.931Z,11.34
2023-04-15T10:23:57.224Z,11.68
2023-04-15T10:26:25.771Z,11.98
2023-04-15T10:28:54.401Z,12.12
2023-04-15T10:31:22.956Z,12.33
2023-04-15T10:33:52.987Z,12.11
2023-04-15T10:36:21.379Z,12.33
2023-04-15T10:38:49.040Z,12.32
2023-04-15T10:41:20.778Z,12.45
2023-04-15T10:43:51.256Z,12.66
2023-04-15T10:46:20.950Z,12.69
2023-04-15T10:48:50.165Z,12.74
2023-04-15T10:51:28.039Z,12.97
2023-04-15T10:53:58.810Z,12.98
2023-04-15T10:56:26.810Z,12.98
2023-04-15T10:58:54.515Z,13.05
2023-04-15T11:01:23.836Z,12.94
2023-04-15T11:03:52.192Z,12.98
2023-04-15T11:06:21.405Z,12.87
2023-04-15T11:09:03.305Z,13.03
2023-04-15T11:12:08.256Z,13.04
2023-04-15T11:14:41.547Z,13.11
2023-04-15T11:17:09.192Z,13.25
2023-04-15T11:19:38.796Z,13.43
2023-04-15T11:22:11.748Z,13.36
2023-04-15T11:24:48.627Z,13.40
2023-04-15T11:27:22.567Z,13.61
2023-04-15T11:29:50.230Z,13.70
2023-04-15T11:32:17.955Z,13.54
2023-04-15T11:34:48.486Z,13.59
2023-04-15T11:37:17.475Z,13.55
2023-04-15T11:39:45.151Z,13.69
2023-04-15T11:42:18.162Z,13.78
2023-04-15T11:44:45.901Z,13.86
2023-04-15T11:47:23.792Z,13.90
2023-04-15T11:49:51.633Z,13.90
2023-04-15T11:52:20.673Z,14.04
2023-04-15T11:54:48.380Z,14.28
2023-04-15T11:57:16.257Z,14.04
2023-04-15T11:59:45.964Z,14.23
2023-04-15T12:02:14.566Z,14.25
2023-04-15T12:04:42.706Z,14.40
2023-04-15T12:07:10.857Z,14.59
2023-04-15T12:09:40.073Z,14.73
2023-04-15T12:12:07.806Z,14.64
2023-04-15T12:14:35.513Z,14.89
2023-04-15T12:17:05.007Z,14.69
2023-04-15T12:19:37.144Z,14.57
2023-04-15T12:22:06.553Z,14.60
2023-04-15T12:24:35.869Z,14.39
2023-04-15T12:27:06.818Z,14.08
2023-04-15T12:29:35.899Z,14.23
2023-04-15T12:32:07.007Z,13.91
2023-04-15T12:34:36.027Z,13.85
2023-04-15T12:37:05.271Z,14.03
2023-04-15T12:39:35.954Z,14.19
2023-04-15T12:42:05.589Z,14.02
2023-04-15T12:44:35.696Z,14.50
2023-04-15T12:47:03.706Z,15.09
2023-04-15T12:49:32.640Z,15.33
2023-04-15T12:52:01.494Z,15.40
2023-04-15T12:54:29.700Z,14.68
2023-04-15T12:56:57.991Z,14.72
2023-04-15T12:59:27.055Z,14.79
2023-04-15T13:01:55.036Z,14.58
2023-04-15T13:04:23.623Z,14.79
2023-04-15T13:06:51.381Z,14.29
2023-04-15T13:09:19.064Z,14.26
2023-04-15T13:11:46.979Z,14.49
2023-04-15T13:14:14.757Z,14.53
2023-04-15T13:16:44.162Z,14.12
2023-04-15T13:19:11.811Z,14.11
2023-04-15T13:21:39.527Z,14.15
2023-04-15T13:24:08.165Z,14.49
2023-04-15T13:26:36.107Z,14.55
2023-04-15T13:29:03.893Z,14.68
2023-04-15T13:31:31.591Z,14.24
2023-04-15T13:34:00.907Z,14.52
2023-04-15T13:36:28.626Z,14.85
2023-04-15T13:38:57.091Z,15.09
2023-04-15T13:41:24.790Z,15.38
2023-04-15T13:43:52.419Z,15.42
2023-04-15T13:46:21.442Z,14.51
2023-04-15T13:48:49.157Z,14.09
2023-04-15T13:51:18.093Z,13.83
2023-04-15T13:53:45.756Z,13.62
2023-04-15T13:56:13.558Z,13.58
2023-04-15T13:58:41.928Z,13.44
2023-04-15T14:01:09.605Z,13.27
2023-04-15T14:03:37.380Z,13.14
2023-04-15T14:06:06.122Z,13.51
2023-04-15T14:08:35.244Z,13.60
2023-04-15T14:11:02.846Z,13.56
2023-04-15T14:13:30.431Z,13.60
2023-04-15T14:15:58.226Z,13.71
2023-04-15T14:18:26.210Z,13.66
2023-04-15T14:20:54.009Z,13.86
2023-04-15T14:23:21.671Z,13.66
2023-04-15T14:25:51.711Z,13.37
2023-04-15T14:28:19.371Z,13.32
2023-04-15T14:30:47.810Z,13.26
2023-04-15T14:33:15.617Z,13.44
2023-04-15T14:35:43.361Z,13.37
2023-04-15T14:38:11.517Z,13.39
2023-04-15T14:40:39.404Z,13.31
2023-04-15T14:43:08.428Z,13.17
2023-04-15T14:45:36.373Z,13.07
2023-04-15T14:48:04.622Z,12.82
2023-04-15T14:50:32.270Z,12.96
2023-04-15T14:53:00.249Z,12.87
2023-04-15T14:55:27.926Z,12.86
2023-04-15T14:57:55.555Z,12.89
2023-04-15T15:00:24.608Z,12.84
2023-04-15T15:02:52.283Z,13.09
2023-04-15T15:05:20.245Z,13.19
2023-04-15T15:07:48.067Z,13.37
2023-04-15T15:10:15.755Z,13.50
2023-04-15T15:12:43.501Z,13.29
2023-04-15T15:15:25.194Z,13.25
2023-04-15T15:17:57.883Z,13.26
2023-04-15T15:20:26.081Z,13.27
2023-04-15T15:22:53.984Z,13.29
2023-04-15T15:25:21.871Z,13.28
2023-04-15T15:27:49.955Z,13.16
2023-04-15T15:30:17.754Z,13.11
2023-04-15T15:32:45.770Z,13.18
2023-04-15T15:35:14.930Z,13.18
2023-04-15T15:37:43.368Z,13.15
2023-04-15T15:40:12.357Z,13.08
2023-04-15T15:42:39.968Z,13.07
2023-04-15T15:45:08.465Z,12.94
2023-04-15T15:47:36.281Z,12.96
2023-04-15T15:50:06.039Z,12.96
2023-04-15T15:52:35.208Z,12.97
2023-04-15T15:55:02.892Z,12.97
2023-04-15T15:57:30.499Z,13.00
2023-04-15T16:00:10.407Z,13.00
2023-04-15T16:03:05.132Z,13.08
2023-04-15T16:05:27.373Z,13.06
2023-04-15T16:07:56.302Z,13.05
2023-04-15T16:10:24.333Z,12.98
2023-04-15T16:12:51.955Z,12.94
2023-04-15T16:15:19.945Z,12.92
2023-04-15T16:17:47.737Z,12.93
2023-04-15T16:20:15.454Z,12.94
2023-04-15T16:22:43.343Z,12.95
2023-04-15T16:25:12.384Z,12.96
2023-04-15T16:27:57.217Z,12.87
2023-04-15T16:30:27.042Z,12.90
2023-04-15T16:32:54.758Z,12.76
2023-04-15T16:35:22.519Z,12.76
2023-04-15T16:37:50.367Z,12.64
2023-04-15T16:40:19.631Z,12.58
2023-04-15T16:42:47.261Z,12.57
2023-04-15T16:45:14.992Z,12.51
2023-04-15T16:47:43.385Z,12.47
2023-04-15T16:50:11.975Z,12.46
2023-04-15T16:52:39.557Z,12.41
2023-04-15T16:55:07.772Z,12.33
2023-04-15T16:57:50.624Z,12.31
2023-04-15T17:00:24.347Z,12.25
2023-04-15T17:02:52.248Z,12.24
2023-04-15T17:05:20.121Z,12.20
2023-04-15T17:07:47.814Z,12.15
2023-04-15T17:10:15.503Z,12.10
2023-04-15T17:12:44.499Z,12.02
2023-04-15T17:15:12.189Z,11.96
2023-04-15T17:17:39.912Z,11.91
2023-04-15T17:20:08.143Z,11.89
2023-04-15T17:22:35.769Z,11.84
2023-04-15T17:25:04.588Z,11.77
2023-04-15T17:27:32.264Z,11.75
2023-04-15T17:30:01.292Z,11.71
2023-04-15T17:32:31.759Z,11.65
2023-04-15T17:34:59.614Z,11.66
2023-04-15T17:37:27.819Z,11.67
2023-04-15T17:39:55.420Z,11.65
2023-04-15T17:42:23.172Z,11.62
2023-04-15T17:44:50.848Z,11.51
2023-04-15T17:47:20.322Z,11.55
2023-04-15T17:49:48.056Z,11.47
2023-04-15T17:52:15.926Z,11.47
2023-04-15T17:54:43.656Z,11.45
2023-04-15T17:57:11.390Z,11.46
2023-04-15T17:59:43.760Z,11.45
2023-04-15T18:02:11.613Z,11.34
2023-04-15T18:04:40.923Z,11.28
2023-04-15T18:07:08.908Z,11.27
2023-04-15T18:09:37.134Z,11.26
2023-04-15T18:12:07.428Z,11.21
2023-04-15T18:14:35.257Z,11.20
2023-04-15T18:17:03.397Z,11.14
2023-04-15T18:19:31.651Z,11.05
2023-04-15T18:22:00.947Z,11.01
2023-04-15T18:24:28.888Z,10.94
2023-04-15T18:26:57.055Z,10.84
2023-04-15T18:29:25.293Z,10.75
2023-04-15T18:31:53.126Z,10.78
2023-04-15T18:34:20.801Z,10.68
2023-04-15T18:36:48.511Z,10.67
2023-04-15T18:39:17.480Z,10.60
2023-04-15T18:41:45.215Z,10.57
2023-04-15T18:44:12.834Z,10.54
2023-04-15T18:46:40.890Z,10.49
2023-04-15T18:49:08.884Z,10.49
2023-04-15T18:51:36.843Z,10.48
2023-04-15T18:54:04.596Z,10.44
2023-04-15T18:56:33.648Z,10.40
2023-04-15T18:59:09.825Z,10.35
2023-04-15T19:01:49.429Z,10.26
2023-04-15T19:04:17.157Z,10.17
2023-04-15T19:06:45.290Z,10.17
2023-04-15T19:09:12.875Z,10.15
2023-04-15T19:11:41.919Z,10.16
2023-04-15T19:14:09.533Z,10.13
2023-04-15T19:16:37.244Z,10.10
2023-04-15T19:19:06.415Z,10.09
2023-04-15T19:21:34.391Z,10.14
2023-04-15T19:24:02.221Z,10.15
2023-04-15T19:26:30.405Z,10.19
2023-04-15T19:28:59.375Z,10.20
2023-04-15T19:31:26.965Z,10.22
2023-04-15T19:33:54.551Z,10.23
2023-04-15T19:36:22.210Z,10.22
2023-04-15T19:38:49.827Z,10.25
2023-04-15T19:41:17.401Z,10.27
2023-04-15T19:43:45.028Z,10.32
2023-04-15T19:46:14.136Z,10.33
2023-04-15T19:48:41.758Z,10.33
2023-04-15T19:51:09.375Z,10.37
2023-04-15T19:53:37.188Z,10.32
2023-04-15T19:56:04.798Z,10.29
2023-04-15T19:58:32.613Z,10.34
2023-04-15T20:01:01.364Z,10.31
2023-04-15T20:03:30.652Z,10.30
2023-04-15T20:05:58.722Z,10.27
2023-04-15T20:08:26.284Z,10.34
2023-04-15T20:10:53.909Z,10.35
2023-04-15T20:13:21.601Z,10.37
2023-04-15T20:15:49.504Z,10.39
2023-04-15T20:18:17.134Z,10.36
2023-04-15T20:20:46.393Z,10.42
2023-04-15T20:23:14.020Z,10.36
2023-04-15T20:25:43.037Z,10.29
2023-04-15T20:28:10.728Z,10.28
2023-04-15T20:30:39.406Z,10.25
2023-04-15T20:33:08.115Z,10.23
2023-04-15T20:35:35.895Z,10.26
2023-04-15T20:38:05.611Z,10.22
2023-04-15T20:40:33.793Z,10.22
2023-04-15T20:43:01.471Z,10.23
2023-04-15T20:45:29.106Z,10.25
2023-04-15T20:47:56.799Z,10.26
2023-04-15T20:50:24.394Z,10.22
2023-04-15T20:52:51.998Z,10.18
2023-04-15T20:55:21.558Z,10.15
2023-04-15T20:57:49.376Z,10.17
2023-04-15T21:00:17.240Z,10.19
2023-04-15T21:02:44.863Z,10.18
2023-04-15T21:05:12.813Z,10.11
2023-04-15T21:07:40.977Z,10.09
2023-04-15T21:10:09.057Z,10.07
2023-04-15T21:12:40.761Z,10.10
2023-04-15T21:15:09.381Z,10.07
2023-04-15T21:17:37.007Z,10.01
2023-04-15T21:20:05.116Z,10.03
2023-04-15T21:22:33.314Z,9.94
2023-04-15T21:25:00.956Z,9.93
2023-04-15T21:27:28.552Z,9.90
2023-04-15T21:29:57.485Z,9.86
2023-04-15T21:32:25.077Z,9.79
2023-04-15T21:34:52.677Z,9.83
2023-04-15T21:37:20.264Z,9.80
2023-04-15T21:39:47.868Z,9.81
2023-04-15T21:42:15.635Z,9.76
2023-04-15T21:44:43.237Z,9.74
2023-04-15T21:47:12.285Z,9.74
2023-04-15T21:49:39.982Z,9.72
2023-04-15T21:52:07.584Z,9.70
2023-04-15T21:54:37.911Z,9.76
2023-04-15T21:57:05.511Z,9.78
2023-04-15T21:59:33.115Z,9.77
2023-04-15T22:02:00.846Z,9.76
2023-04-15T22:04:29.994Z,9.77
2023-04-15T22:07:01.532Z,9.71
2023-04-15T22:09:29.702Z,9.67
2023-04-15T22:11:59.213Z,9.66
2023-04-15T22:14:26.933Z,9.65
2023-04-15T22:16:55.085Z,9.63
2023-04-15T22:19:22.899Z,9.66
2023-04-15T22:21:52.191Z,9.64
2023-04-15T22:24:39.260Z,9.61
2023-04-15T22:27:07.448Z,9.61
2023-04-15T22:29:35.767Z,9.64
2023-04-15T22:32:03.353Z,9.67
2023-04-15T22:34:30.948Z,9.63
2023-04-15T22:36:59.920Z,9.62
2023-04-15T22:39:27.618Z,9.58
2023-04-15T22:41:56.662Z,9.59
2023-04-15T22:44:24.255Z,9.58
2023-04-15T22:46:51.993Z,9.55
2023-04-15T22:49:19.758Z,9.54
2023-04-15T22:51:47.384Z,9.54
2023-04-15T22:54:16.342Z,9.48
2023-04-15T22:56:43.892Z,9.48
2023-04-15T22:59:11.626Z,9.48
2023-04-15T23:01:39.474Z,9.51
2023-04-15T23:04:23.766Z,9.50
2023-04-15T23:06:54.380Z,9.54
2023-04-15T23:09:23.490Z,9.51
2023-04-15T23:11:51.108Z,9.53
2023-04-15T23:14:18.702Z,9.54
2023-04-15T23:16:46.369Z,9.51
2023-04-15T23:19:14.001Z,9.51
2023-04-15T23:21:41.589Z,9.48
2023-04-15T23:24:09.712Z,9.42
2023-04-15T23:26:38.642Z,9.47
2023-04-15T23:29:06.363Z,9.43
2023-04-15T23:31:34.058Z,9.43
2023-04-15T23:34:01.752Z,9.41
2023-04-15T23:36:29.358Z,9.43
2023-04-15T23:38:56.958Z,9.40
2023-04-15T23:41:24.577Z,9.40
2023-04-15T23:43:53.504Z,9.38
2023-04-15T23:46:21.075Z,9.37
2023-04-15T23:48:49.082Z,9.37
2023-04-15T23:51:17.934Z,9.38
2023-04-15T23:53:46.186Z,9.26
2023-04-15T23:56:13.849Z,9.26
2023-04-15T23:58:41.477Z,9.20
